createdAt,value
2019-05-22T00:01:27.450Z,8.75
2019-05-22T00:05:34.783Z,9.43
2019-05-22T00:09:42.556Z,8.35
2019-05-22T00:13:47.740Z,9.63
2019-05-22T00:17:53.548Z,8.08
2019-05-22T00:22:01.336Z,7.05
2019-05-22T00:26:05.507Z,8.38
2019-05-22T00:30:10.678Z,7.45
2019-05-22T00:34:15.782Z,7.35
2019-05-22T00:38:21.075Z,6.62
2019-05-22T00:42:24.920Z,7.83
2019-05-22T00:46:28.686Z,7.60
2019-05-22T00:50:40.289Z,7.37
2019-05-22T00:54:46.156Z,5.87
2019-05-22T00:58:51.705Z,6.67
2019-05-22T01:02:56.882Z,7.72
2019-05-22T01:07:01.059Z,7.67
2019-05-22T01:11:06.694Z,6.80
2019-05-22T01:15:14.914Z,6.47
2019-05-22T01:19:19.423Z,6.87
2019-05-22T01:23:24.931Z,7.85
2019-05-22T01:27:30.154Z,7.00
2019-05-22T01:31:39.327Z,6.08
2019-05-22T01:35:44.651Z,5.67
2019-05-22T01:39:58.500Z,4.78
2019-05-22T01:49:18.693Z,5.07
2019-05-22T01:53:24.053Z,6.92
2019-05-22T01:57:29.448Z,6.03
2019-05-22T02:01:34.118Z,6.00
2019-05-22T02:05:38.245Z,6.53
2019-05-22T02:09:44.385Z,7.62
2019-05-22T02:14:10.417Z,5.75
2019-05-22T02:18:17.784Z,7.72
2019-05-22T02:22:22.156Z,5.80
2019-05-22T02:26:26.187Z,7.20
2019-05-22T02:30:31.011Z,6.03
2019-05-22T02:34:35.849Z,5.70
2019-05-22T02:38:39.495Z,6.83
2019-05-22T02:42:44.363Z,6.83
2019-05-22T02:46:50.488Z,7.15
2019-05-22T02:50:56.126Z,6.42
2019-05-22T02:54:59.902Z,6.47
2019-05-22T02:59:07.127Z,7.03
2019-05-22T03:03:11.168Z,6.97
2019-05-22T03:07:15.448Z,6.42
2019-05-22T03:11:18.884Z,7.70
2019-05-22T03:15:24.337Z,7.35
2019-05-22T03:19:41.456Z,5.95
2019-05-22T03:23:44.929Z,7.20
2019-05-22T03:27:52.408Z,5.35
2019-05-22T03:31:55.838Z,6.78
2019-05-22T03:36:11.586Z,6.85
2019-05-22T03:40:15.895Z,6.25
2019-05-22T03:44:19.597Z,7.83
2019-05-22T03:48:26.441Z,6.62
2019-05-22T03:52:30.836Z,6.75
2019-05-22T03:56:40.222Z,8.08
2019-05-22T04:00:45.369Z,7.45
2019-05-22T04:04:49.450Z,8.40
2019-05-22T04:08:54.582Z,8.77
2019-05-22T04:12:58.420Z,8.38
2019-05-22T04:17:02.587Z,7.90
2019-05-22T04:21:06.343Z,7.08
2019-05-22T04:25:10.656Z,7.42
2019-05-22T04:29:14.101Z,7.75
2019-05-22T04:33:19.151Z,7.50
2019-05-22T04:37:23.590Z,8.08
2019-05-22T04:41:28.695Z,7.70
2019-05-22T04:45:32.271Z,5.62
2019-05-22T04:49:36.595Z,7.45
2019-05-22T04:53:40.108Z,7.03
2019-05-22T04:57:43.932Z,6.92
2019-05-22T05:01:48.049Z,6.45
2019-05-22T05:05:52.272Z,6.83
2019-05-22T05:09:56.108Z,6.00
2019-05-22T05:14:01.403Z,6.95
2019-05-22T05:18:04.930Z,7.42
2019-05-22T05:22:09.018Z,7.03
2019-05-22T05:26:12.452Z,7.40
2019-05-22T05:30:20.975Z,8.15
2019-05-22T05:34:37.930Z,6.53
2019-05-22T05:38:42.163Z,6.00
2019-05-22T05:42:50.016Z,6.33
2019-05-22T05:46:56.653Z,6.53
2019-05-22T05:51:10.052Z,5.72
2019-05-22T05:55:13.866Z,5.22
2019-05-22T05:59:18.766Z,6.10
2019-05-22T06:03:34.637Z,5.95
2019-05-22T06:07:38.837Z,6.17
2019-05-22T06:16:54.379Z,6.03
2019-05-22T06:21:03.869Z,6.72
2019-05-22T06:25:08.555Z,5.50
2019-05-22T06:29:13.855Z,5.28
2019-05-22T06:33:26.486Z,4.22
2019-05-22T06:37:53.683Z,5.10
2019-05-22T06:41:57.293Z,6.62
2019-05-22T06:46:00.906Z,5.97
2019-05-22T06:55:08.208Z,4.87
2019-05-22T06:59:11.633Z,5.53
2019-05-22T07:03:16.005Z,4.40
2019-05-22T07:07:21.389Z,3.50
2019-05-22T07:11:26.165Z,5.00
2019-05-22T07:15:34.119Z,3.70
2019-05-22T07:19:38.303Z,4.60
2019-05-22T07:23:41.956Z,4.08
2019-05-22T07:27:45.426Z,4.05
2019-05-22T07:31:50.233Z,4.12
2019-05-22T07:36:09.533Z,4.08
2019-05-22T07:40:00.471Z,4.80
2019-05-22T07:44:04.475Z,5.80
2019-05-22T07:48:09.912Z,5.25
2019-05-22T07:52:13.709Z,4.15
2019-05-22T07:56:18.678Z,4.75
2019-05-22T08:00:22.781Z,4.05
2019-05-22T08:04:26.930Z,5.40
2019-05-22T08:08:33.192Z,5.25
2019-05-22T08:12:38.222Z,4.25
2019-05-22T08:16:42.222Z,5.03
2019-05-22T08:20:45.819Z,4.50
2019-05-22T08:24:50.810Z,4.35
2019-05-22T08:28:55.762Z,3.55
2019-05-22T08:33:02.863Z,3.67
2019-05-22T08:37:09.483Z,4.25
2019-05-22T08:41:15.058Z,4.22
2019-05-22T08:45:20.447Z,3.67
2019-05-22T08:49:24.990Z,4.60
2019-05-22T08:53:44.459Z,2.95
2019-05-22T08:57:36.902Z,4.42
2019-05-22T09:01:40.644Z,3.42
2019-05-22T09:05:44.599Z,2.80
2019-05-22T09:09:48.140Z,3.37
2019-05-22T09:13:51.741Z,3.40
2019-05-22T09:17:55.790Z,2.92
2019-05-22T09:22:00.770Z,3.75
2019-05-22T09:26:06.315Z,3.37
2019-05-22T09:30:10.814Z,4.60
2019-05-22T09:34:15.015Z,3.75
2019-05-22T09:38:19.013Z,3.00
2019-05-22T09:42:22.821Z,3.45
2019-05-22T09:46:26.360Z,3.17
2019-05-22T09:50:30.177Z,3.58
2019-05-22T09:54:34.913Z,2.85
2019-05-22T09:58:38.410Z,3.17
2019-05-22T10:02:42.386Z,2.87
2019-05-22T10:06:45.891Z,2.80
2019-05-22T10:10:49.842Z,2.92
2019-05-22T10:14:53.981Z,2.93
2019-05-22T10:18:57.544Z,2.23
2019-05-22T10:23:14.677Z,2.67
2019-05-22T10:27:09.062Z,2.27
2019-05-22T10:31:15.492Z,2.40
2019-05-22T10:35:19.758Z,2.60
2019-05-22T10:39:24.916Z,2.92
2019-05-22T10:43:28.709Z,3.90
2019-05-22T10:47:33.213Z,2.75
2019-05-22T10:51:36.825Z,2.52
2019-05-22T10:55:40.576Z,2.65
2019-05-22T10:59:44.493Z,2.62
2019-05-22T11:03:47.975Z,2.62
2019-05-22T11:07:52.259Z,3.35
2019-05-22T11:11:56.078Z,3.12
2019-05-22T11:16:00.286Z,2.58
2019-05-22T11:20:05.372Z,2.87
2019-05-22T11:24:09.360Z,2.10
2019-05-22T11:28:13.150Z,2.30
2019-05-22T11:32:17.126Z,2.02
2019-05-22T11:36:21.442Z,2.45
2019-05-22T11:40:25.732Z,1.55
2019-05-22T11:44:29.264Z,1.92
2019-05-22T11:48:32.682Z,2.25
2019-05-22T11:52:37.110Z,1.87
2019-05-22T11:56:40.800Z,2.10
2019-05-22T12:00:44.490Z,2.30
2019-05-22T12:04:49.086Z,1.90
2019-05-22T12:08:53.186Z,1.85
2019-05-22T12:12:57.851Z,1.80
2019-05-22T12:17:01.938Z,1.92
2019-05-22T12:21:06.733Z,2.20
2019-05-22T12:25:12.760Z,1.40
2019-05-22T12:29:17.407Z,1.67
2019-05-22T12:33:21.234Z,1.87
2019-05-22T12:37:27.698Z,1.77
2019-05-22T12:41:48.474Z,2.02
2019-05-22T12:46:11.078Z,1.50
2019-05-22T12:50:32.867Z,2.00
2019-05-22T12:54:47.273Z,1.40
2019-05-22T12:58:44.429Z,1.60
2019-05-22T13:02:48.425Z,1.42
2019-05-22T13:06:52.151Z,1.80
2019-05-22T13:10:55.906Z,2.00
2019-05-22T13:15:09.884Z,2.02
2019-05-22T13:19:06.639Z,1.30
2019-05-22T13:23:10.942Z,1.62
2019-05-22T13:27:17.793Z,1.87
2019-05-22T13:31:22.343Z,1.42
2019-05-22T13:35:26.778Z,1.85
2019-05-22T13:39:32.289Z,1.70
2019-05-22T13:43:37.256Z,1.98
2019-05-22T13:47:41.442Z,1.57
2019-05-22T13:51:45.444Z,1.80
2019-05-22T13:55:49.199Z,2.10
2019-05-22T13:59:53.504Z,1.82
2019-05-22T14:03:56.984Z,1.85
2019-05-22T14:08:01.469Z,1.70
2019-05-22T14:12:07.027Z,1.65
2019-05-22T14:16:11.153Z,1.65
2019-05-22T14:20:16.936Z,1.98
2019-05-22T14:24:21.255Z,1.45
2019-05-22T14:28:26.858Z,1.55
2019-05-22T14:32:35.574Z,1.02
2019-05-22T14:36:39.560Z,1.27
2019-05-22T14:40:43.889Z,1.40
2019-05-22T14:44:48.538Z,1.37
2019-05-22T14:48:53.578Z,1.52
2019-05-22T14:52:57.391Z,1.40
2019-05-22T14:57:01.500Z,1.25
2019-05-22T15:01:06.967Z,1.47
2019-05-22T15:05:11.246Z,1.42
2019-05-22T15:09:15.023Z,1.95
2019-05-22T15:13:19.376Z,1.20
2019-05-22T15:17:32.660Z,2.00
2019-05-22T15:21:28.872Z,0.98
2019-05-22T15:25:32.400Z,1.47
2019-05-22T15:29:36.062Z,1.20
2019-05-22T15:33:40.787Z,1.57
2019-05-22T15:37:44.755Z,1.72
2019-05-22T15:41:49.477Z,1.07
2019-05-22T15:45:54.386Z,1.47
2019-05-22T15:49:57.949Z,1.00
2019-05-22T15:54:04.473Z,0.77
2019-05-22T15:58:08.808Z,1.12
2019-05-22T16:02:15.026Z,1.20
2019-05-22T16:06:19.223Z,0.70
2019-05-22T16:10:23.924Z,1.00
2019-05-22T16:14:29.823Z,0.80
2019-05-22T16:18:37.708Z,0.90
2019-05-22T16:22:42.195Z,0.85
2019-05-22T16:26:46.049Z,0.90
2019-05-22T16:30:50.155Z,1.05
2019-05-22T16:34:55.640Z,1.00
2019-05-22T16:38:59.766Z,0.88
2019-05-22T16:43:03.366Z,1.02
2019-05-22T16:47:08.961Z,0.95
2019-05-22T16:51:15.373Z,1.50
2019-05-22T16:55:20.536Z,1.95
2019-05-22T16:59:25.102Z,0.93
2019-05-22T17:03:30.782Z,1.32
2019-05-22T17:07:35.120Z,0.98
2019-05-22T17:11:39.181Z,0.60
2019-05-22T17:15:42.733Z,0.75
2019-05-22T17:19:46.844Z,1.12
2019-05-22T17:23:50.702Z,1.32
2019-05-22T17:27:55.009Z,1.35
2019-05-22T17:32:01.158Z,1.02
2019-05-22T17:36:07.960Z,1.42
2019-05-22T17:40:12.379Z,1.12
2019-05-22T17:44:17.897Z,0.90
2019-05-22T17:48:22.868Z,1.07
2019-05-22T17:52:27.822Z,1.00
2019-05-22T17:56:31.728Z,1.65
2019-05-22T18:00:37.103Z,1.40
2019-05-22T18:04:40.730Z,2.05
2019-05-22T18:08:44.566Z,3.52
2019-05-22T18:12:49.203Z,4.75
2019-05-22T18:16:53.310Z,4.30
2019-05-22T18:20:57.308Z,1.80
2019-05-22T18:25:04.797Z,2.42
2019-05-22T18:29:08.560Z,3.17
2019-05-22T18:33:15.217Z,17.57
2019-05-22T18:37:18.788Z,2.92
2019-05-22T18:41:22.512Z,5.95
2019-05-22T18:45:27.800Z,1.72
2019-05-22T18:49:31.518Z,4.12
2019-05-22T18:53:35.349Z,4.42
2019-05-22T18:57:39.167Z,4.28
2019-05-22T19:01:42.653Z,1.98
2019-05-22T19:05:46.478Z,1.90
2019-05-22T19:09:50.236Z,3.42
2019-05-22T19:13:53.764Z,7.40
2019-05-22T19:17:58.069Z,9.38
2019-05-22T19:22:01.710Z,3.10
2019-05-22T19:26:06.139Z,2.12
2019-05-22T19:30:10.528Z,1.82
2019-05-22T19:34:14.670Z,1.42
2019-05-22T19:38:18.786Z,1.62
2019-05-22T19:42:22.494Z,1.22
2019-05-22T19:46:26.055Z,1.80
2019-05-22T19:50:31.299Z,1.80
2019-05-22T19:54:36.659Z,1.37
2019-05-22T19:58:40.526Z,2.03
2019-05-22T20:02:44.643Z,1.60
2019-05-22T20:06:48.710Z,1.22
2019-05-22T20:10:52.959Z,1.20
2019-05-22T20:14:56.912Z,1.22
2019-05-22T20:19:00.640Z,1.25
2019-05-22T20:23:05.437Z,1.47
2019-05-22T20:27:10.295Z,1.52
2019-05-22T20:31:14.734Z,1.22
2019-05-22T20:35:18.744Z,1.40
2019-05-22T20:39:22.508Z,1.70
2019-05-22T20:43:26.376Z,1.77
2019-05-22T20:47:31.902Z,1.47
2019-05-22T20:51:36.125Z,1.75
2019-05-22T20:55:42.611Z,1.95
2019-05-22T20:59:47.820Z,1.70
2019-05-22T21:03:52.104Z,1.70
2019-05-22T21:07:58.695Z,4.53
2019-05-22T21:12:04.287Z,1.60
2019-05-22T21:16:09.783Z,2.08
2019-05-22T21:20:18.282Z,1.47
2019-05-22T21:24:22.846Z,1.82
2019-05-22T21:28:27.071Z,1.85
2019-05-22T21:32:30.950Z,2.55
2019-05-22T21:36:34.860Z,1.98
2019-05-22T21:40:38.625Z,1.87
2019-05-22T21:44:42.364Z,2.15
2019-05-22T21:48:48.223Z,1.95
2019-05-22T21:52:52.516Z,1.98
2019-05-22T21:56:56.064Z,2.00
2019-05-22T22:01:02.937Z,2.17
2019-05-22T22:05:08.313Z,2.00
2019-05-22T22:09:12.224Z,1.92
2019-05-22T22:13:17.485Z,1.60
2019-05-22T22:17:22.967Z,1.70
2019-05-22T22:21:27.026Z,1.92
2019-05-22T22:25:31.222Z,1.98
2019-05-22T22:29:35.258Z,1.77
2019-05-22T22:33:40.737Z,1.85
2019-05-22T22:37:48.121Z,1.87
2019-05-22T22:41:52.158Z,1.98
2019-05-22T22:45:59.430Z,1.65
2019-05-22T22:50:03.091Z,2.05
2019-05-22T22:54:07.789Z,1.05
2019-05-22T22:58:17.353Z,2.00
2019-05-22T23:02:22.882Z,1.52
2019-05-22T23:06:27.111Z,1.80
2019-05-22T23:10:31.448Z,1.80
2019-05-22T23:14:36.618Z,2.12
2019-05-22T23:18:44.416Z,1.75
2019-05-22T23:22:48.161Z,1.98
2019-05-22T23:26:52.032Z,1.60
2019-05-22T23:30:56.790Z,2.02
2019-05-22T23:35:00.872Z,2.05
2019-05-22T23:39:08.580Z,1.50
2019-05-22T23:43:14.390Z,1.90
2019-05-22T23:47:17.964Z,2.52
2019-05-22T23:51:21.723Z,1.80
2019-05-22T23:55:25.416Z,1.40
2019-05-22T23:59:31.087Z,1.77
